createdAt,value
2022-10-03T00:02:14.841Z,3.93
2022-10-03T00:05:07.354Z,3.60
2022-10-03T00:07:56.519Z,3.50
2022-10-03T00:10:37.050Z,2.80
2022-10-03T00:13:18.007Z,3.20
2022-10-03T00:15:56.812Z,5.50
2022-10-03T00:18:41.088Z,3.70
2022-10-03T00:21:41.528Z,2.77
2022-10-03T00:24:25.156Z,4.03
2022-10-03T00:27:03.414Z,2.27
2022-10-03T00:30:06.101Z,2.87
2022-10-03T00:32:48.073Z,2.20
2022-10-03T00:35:31.503Z,2.77
2022-10-03T00:38:22.057Z,2.53
2022-10-03T00:41:54.695Z,5.13
2022-10-03T00:45:33.675Z,3.00
2022-10-03T00:49:02.426Z,3.87
2022-10-03T00:51:53.878Z,3.83
2022-10-03T00:54:46.272Z,3.27
2022-10-03T00:57:36.262Z,4.10
2022-10-03T01:00:20.090Z,8.00
2022-10-03T01:03:06.456Z,3.27
2022-10-03T01:05:50.731Z,4.43
2022-10-03T01:08:40.694Z,3.40
2022-10-03T01:11:26.289Z,3.17
2022-10-03T01:14:10.810Z,4.23
2022-10-03T01:16:52.948Z,3.40
2022-10-03T01:20:01.727Z,3.53
2022-10-03T01:23:19.014Z,3.87
2022-10-03T01:25:54.314Z,7.30
2022-10-03T01:29:02.328Z,3.97
2022-10-03T01:31:41.924Z,3.27
2022-10-03T01:34:21.831Z,4.37
2022-10-03T01:37:06.134Z,3.93
2022-10-03T01:39:43.266Z,5.33
2022-10-03T01:42:19.978Z,4.07
2022-10-03T01:45:10.235Z,3.40
2022-10-03T01:47:51.428Z,3.07
2022-10-03T01:50:30.233Z,4.60
2022-10-03T01:53:08.408Z,4.67
2022-10-03T01:55:55.810Z,6.10
2022-10-03T01:58:31.238Z,4.67
2022-10-03T02:01:08.303Z,5.77
2022-10-03T02:03:46.890Z,6.43
2022-10-03T02:06:31.289Z,5.87
2022-10-03T02:09:08.882Z,5.40
2022-10-03T02:11:42.902Z,5.90
2022-10-03T02:14:23.452Z,8.67
2022-10-03T02:17:02.764Z,8.50
2022-10-03T02:19:37.354Z,8.10
2022-10-03T02:22:17.062Z,7.93
2022-10-03T02:24:56.779Z,5.97
2022-10-03T02:28:14.777Z,7.80
2022-10-03T02:31:13.985Z,6.73
2022-10-03T02:34:18.166Z,7.57
2022-10-03T02:37:28.284Z,9.73
2022-10-03T02:40:39.523Z,7.90
2022-10-03T02:43:36.240Z,5.70
2022-10-03T02:46:38.003Z,8.23
2022-10-03T02:49:52.100Z,8.37
2022-10-03T02:53:07.572Z,6.33
2022-10-03T02:56:16.356Z,9.47
2022-10-03T02:59:11.787Z,8.00
2022-10-03T03:02:18.310Z,6.50
2022-10-03T03:05:24.318Z,5.80
2022-10-03T03:08:25.296Z,5.73
2022-10-03T03:11:28.881Z,8.30
2022-10-03T03:14:42.570Z,6.40
2022-10-03T03:17:25.070Z,5.60
2022-10-03T03:20:17.519Z,5.13
2022-10-03T03:23:10.216Z,6.43
2022-10-03T03:25:58.938Z,7.67
2022-10-03T03:28:38.441Z,7.23
2022-10-03T03:31:13.678Z,8.27
2022-10-03T03:34:00.150Z,10.07
2022-10-03T03:36:41.320Z,7.73
2022-10-03T03:39:32.048Z,8.00
2022-10-03T03:42:24.723Z,6.30
2022-10-03T03:45:09.624Z,6.63
2022-10-03T03:48:05.505Z,8.07
2022-10-03T03:50:52.889Z,10.20
2022-10-03T03:53:44.584Z,7.00
2022-10-03T03:56:31.976Z,9.53
2022-10-03T03:59:14.691Z,8.07
2022-10-03T04:02:07.408Z,8.40
2022-10-03T04:04:51.976Z,10.40
2022-10-03T04:07:38.691Z,7.77
2022-10-03T04:10:26.613Z,6.90
2022-10-03T04:13:40.596Z,7.20
2022-10-03T04:17:00.670Z,8.07
2022-10-03T04:19:42.432Z,5.77
2022-10-03T04:22:31.191Z,7.37
2022-10-03T04:25:47.271Z,6.87
2022-10-03T04:28:42.116Z,6.33
2022-10-03T04:31:31.991Z,5.53
2022-10-03T04:34:31.029Z,8.00
2022-10-03T04:37:16.386Z,6.13
2022-10-03T04:39:55.399Z,8.10
2022-10-03T04:42:40.895Z,10.93
2022-10-03T04:45:36.895Z,8.10
2022-10-03T04:48:16.520Z,9.43
2022-10-03T04:50:57.390Z,6.70
2022-10-03T04:53:42.357Z,7.73
2022-10-03T04:56:39.893Z,8.10
2022-10-03T04:59:36.208Z,9.93
2022-10-03T05:02:12.686Z,9.50
2022-10-03T05:05:01.797Z,9.17
2022-10-03T05:07:41.503Z,9.23
2022-10-03T05:10:31.795Z,8.80
2022-10-03T05:13:11.377Z,7.67
2022-10-03T05:15:56.407Z,9.60
2022-10-03T05:18:35.316Z,6.83
2022-10-03T05:21:10.386Z,7.63
2022-10-03T05:24:03.606Z,7.40
2022-10-03T05:26:48.148Z,7.87
2022-10-03T05:29:28.328Z,8.63
2022-10-03T05:32:18.071Z,7.43
2022-10-03T05:35:07.218Z,7.43
2022-10-03T05:38:11.631Z,10.30
2022-10-03T05:40:45.069Z,7.97
2022-10-03T05:43:29.511Z,9.23
2022-10-03T05:46:06.237Z,9.57
2022-10-03T05:48:49.642Z,10.67
2022-10-03T05:52:01.520Z,8.07
2022-10-03T05:54:57.663Z,10.47
2022-10-03T05:57:55.247Z,8.77
2022-10-03T06:00:26.171Z,9.13
2022-10-03T06:03:37.773Z,9.60
2022-10-03T06:06:28.811Z,8.53
2022-10-03T06:09:36.234Z,8.10
2022-10-03T06:12:11.396Z,8.20
2022-10-03T06:15:19.981Z,10.83
2022-10-03T06:18:23.006Z,8.37
2022-10-03T06:21:23.193Z,9.53
2022-10-03T06:24:38.383Z,8.27
2022-10-03T06:28:00.560Z,11.53
2022-10-03T06:30:53.674Z,11.57
2022-10-03T06:34:09.317Z,15.23
2022-10-03T06:37:09.394Z,10.90
2022-10-03T06:40:48.237Z,7.93
2022-10-03T06:43:50.156Z,14.77
2022-10-03T06:47:11.740Z,16.00
2022-10-03T06:50:19.980Z,11.60
2022-10-03T06:53:45.899Z,10.60
2022-10-03T06:56:55.604Z,10.67
2022-10-03T07:00:03.025Z,12.07
2022-10-03T07:03:05.174Z,11.17
2022-10-03T07:06:24.375Z,12.67
2022-10-03T07:09:37.324Z,11.60
2022-10-03T07:13:13.051Z,13.37
2022-10-03T07:16:27.655Z,12.10
2022-10-03T07:19:43.594Z,13.93
2022-10-03T07:22:57.452Z,14.03
2022-10-03T07:26:31.837Z,17.80
2022-10-03T07:29:24.523Z,13.30
2022-10-03T07:32:22.796Z,14.00
2022-10-03T07:36:09.375Z,15.67
2022-10-03T07:39:16.834Z,14.80
2022-10-03T07:42:33.035Z,13.83
2022-10-03T07:45:34.845Z,14.63
2022-10-03T07:48:53.189Z,18.33
2022-10-03T07:51:29.636Z,18.23
2022-10-03T07:54:44.057Z,20.53
2022-10-03T07:57:38.125Z,14.77
2022-10-03T08:00:22.711Z,19.50
2022-10-03T08:03:54.305Z,12.97
2022-10-03T08:06:29.954Z,17.10
2022-10-03T08:09:42.728Z,13.90
2022-10-03T08:12:58.508Z,17.47
2022-10-03T08:15:41.037Z,13.70
2022-10-03T08:18:41.892Z,18.70
2022-10-03T08:21:16.197Z,18.03
2022-10-03T08:25:01.961Z,13.90
2022-10-03T08:28:04.141Z,20.87
2022-10-03T08:30:55.181Z,13.80
2022-10-03T08:33:48.608Z,25.10
2022-10-03T08:36:53.413Z,21.33
2022-10-03T08:40:02.032Z,11.83
2022-10-03T08:43:28.043Z,17.37
2022-10-03T08:46:29.861Z,19.23
2022-10-03T08:49:14.395Z,11.90
2022-10-03T08:52:10.799Z,14.93
2022-10-03T08:55:23.719Z,12.87
2022-10-03T08:58:40.149Z,17.07
2022-10-03T09:01:29.098Z,14.77
2022-10-03T09:04:48.893Z,15.80
2022-10-03T09:07:55.761Z,20.83
2022-10-03T09:10:59.464Z,14.13
2022-10-03T09:14:37.523Z,12.40
2022-10-03T09:17:56.790Z,11.70
2022-10-03T09:21:07.485Z,11.97
2022-10-03T09:24:14.596Z,9.37
2022-10-03T09:27:35.871Z,13.67
2022-10-03T09:30:27.059Z,11.03
2022-10-03T09:33:50.605Z,11.63
2022-10-03T09:37:18.208Z,10.13
2022-10-03T09:40:37.718Z,14.53
2022-10-03T09:44:02.089Z,10.63
2022-10-03T09:47:26.322Z,11.53
2022-10-03T09:51:01.178Z,11.60
2022-10-03T09:54:28.162Z,10.73
2022-10-03T09:58:08.684Z,9.83
2022-10-03T10:01:08.346Z,9.70
2022-10-03T10:04:53.638Z,8.50
2022-10-03T10:08:27.780Z,14.37
2022-10-03T10:11:13.812Z,13.43
2022-10-03T10:14:37.798Z,14.50
2022-10-03T10:18:00.480Z,12.80
2022-10-03T10:21:01.573Z,14.97
2022-10-03T10:23:47.878Z,11.53
2022-10-03T10:26:48.295Z,11.63
2022-10-03T10:29:55.746Z,20.53
2022-10-03T10:33:21.732Z,12.80
2022-10-03T10:36:37.047Z,15.90
2022-10-03T10:39:57.108Z,13.23
2022-10-03T10:43:26.231Z,13.63
2022-10-03T10:46:31.357Z,13.73
2022-10-03T10:49:54.506Z,16.27
2022-10-03T10:53:06.202Z,9.80
2022-10-03T10:56:21.530Z,10.83
2022-10-03T10:59:50.832Z,10.43
2022-10-03T11:03:11.898Z,10.70
2022-10-03T11:06:37.108Z,8.10
2022-10-03T11:09:38.172Z,7.47
2022-10-03T11:13:06.969Z,7.67
2022-10-03T11:16:50.105Z,6.17
2022-10-03T11:20:03.908Z,9.03
2022-10-03T11:23:27.098Z,9.87
2022-10-03T11:27:01.344Z,12.90
2022-10-03T11:30:19.226Z,7.87
2022-10-03T11:33:50.435Z,11.60
2022-10-03T11:37:03.801Z,11.33
2022-10-03T11:39:50.319Z,12.30
2022-10-03T11:42:33.325Z,8.70
2022-10-03T11:45:04.966Z,9.83
2022-10-03T11:47:53.989Z,8.73
2022-10-03T11:50:52.736Z,11.60
2022-10-03T11:53:39.915Z,8.77
2022-10-03T11:56:34.240Z,6.17
2022-10-03T11:59:39.268Z,7.93
2022-10-03T12:02:43.206Z,4.83
2022-10-03T12:05:23.276Z,7.37
2022-10-03T12:08:25.551Z,8.63
2022-10-03T12:11:06.292Z,5.10
2022-10-03T12:13:44.504Z,7.23
2022-10-03T12:16:24.002Z,5.17
2022-10-03T12:19:05.358Z,8.60
2022-10-03T12:21:52.212Z,8.97
2022-10-03T12:24:27.972Z,8.43
2022-10-03T12:27:07.396Z,6.17
2022-10-03T12:29:44.180Z,8.77
2022-10-03T12:32:27.974Z,7.70
2022-10-03T12:35:14.760Z,7.77
2022-10-03T12:37:52.658Z,7.67
2022-10-03T12:40:27.834Z,5.57
2022-10-03T12:43:09.348Z,12.00
2022-10-03T12:45:43.358Z,8.30
2022-10-03T12:48:38.014Z,5.07
2022-10-03T12:51:22.407Z,6.17
2022-10-03T12:54:05.316Z,7.27
2022-10-03T12:56:45.989Z,5.87
2022-10-03T12:59:26.135Z,6.57
2022-10-03T13:02:22.303Z,6.50
2022-10-03T13:05:23.486Z,6.60
2022-10-03T13:07:56.750Z,6.93
2022-10-03T13:10:38.832Z,7.63
2022-10-03T13:13:28.447Z,5.83
2022-10-03T13:16:16.741Z,6.07
2022-10-03T13:18:54.611Z,5.37
2022-10-03T13:21:47.040Z,6.23
2022-10-03T13:24:31.993Z,7.47
2022-10-03T13:27:26.953Z,5.43
2022-10-03T13:30:05.266Z,5.23
2022-10-03T13:32:37.020Z,4.63
2022-10-03T13:35:42.005Z,7.70
2022-10-03T13:38:58.664Z,6.70
2022-10-03T13:42:00.607Z,6.77
2022-10-03T13:44:39.805Z,8.53
2022-10-03T13:47:28.906Z,6.07
2022-10-03T13:50:01.589Z,4.73
2022-10-03T13:52:40.160Z,6.73
2022-10-03T13:55:22.038Z,7.33
2022-10-03T13:58:13.303Z,7.83
2022-10-03T14:01:02.092Z,6.40
2022-10-03T14:03:45.429Z,9.70
2022-10-03T14:06:25.092Z,8.80
2022-10-03T14:09:23.023Z,4.90
2022-10-03T14:12:05.479Z,5.10
2022-10-03T14:14:58.035Z,6.27
2022-10-03T14:17:39.515Z,7.67
2022-10-03T14:20:25.185Z,5.03
2022-10-03T14:23:17.022Z,4.03
2022-10-03T14:25:52.808Z,5.90
2022-10-03T14:28:29.438Z,6.77
2022-10-03T14:31:08.227Z,5.27
2022-10-03T14:33:46.311Z,7.57
2022-10-03T14:36:34.540Z,6.67
2022-10-03T14:39:29.760Z,13.07
2022-10-03T14:42:37.905Z,6.70
2022-10-03T14:45:11.535Z,3.90
2022-10-03T14:47:43.746Z,4.13
2022-10-03T14:50:20.284Z,8.60
2022-10-03T14:53:01.992Z,3.97
2022-10-03T14:55:35.000Z,5.60
2022-10-03T14:58:11.481Z,7.47
2022-10-03T15:00:45.238Z,9.03
2022-10-03T15:03:30.470Z,3.73
2022-10-03T15:06:21.154Z,5.77
2022-10-03T15:08:54.479Z,6.67
2022-10-03T15:11:29.746Z,8.67
2022-10-03T15:14:02.581Z,14.10
2022-10-03T15:16:37.238Z,6.87
2022-10-03T15:19:11.091Z,5.97
2022-10-03T15:21:43.975Z,5.30
2022-10-03T15:24:25.145Z,5.90
2022-10-03T15:27:03.116Z,5.20
2022-10-03T15:29:34.118Z,6.53
2022-10-03T15:32:08.342Z,4.50
2022-10-03T15:34:42.141Z,5.43
2022-10-03T15:37:19.503Z,8.10
2022-10-03T15:39:52.491Z,5.10
2022-10-03T15:42:29.893Z,5.77
2022-10-03T15:45:03.771Z,6.33
2022-10-03T15:47:36.689Z,5.63
2022-10-03T15:50:16.551Z,4.00
2022-10-03T15:52:49.739Z,9.50
2022-10-03T15:55:24.192Z,5.63
2022-10-03T15:58:10.996Z,4.83
2022-10-03T16:00:42.697Z,8.10
2022-10-03T16:03:18.453Z,6.00
2022-10-03T16:06:04.175Z,5.73
2022-10-03T16:08:36.931Z,4.33
2022-10-03T16:11:14.198Z,10.87
2022-10-03T16:13:47.637Z,5.70
2022-10-03T16:16:20.381Z,7.07
2022-10-03T16:19:01.679Z,6.10
2022-10-03T16:21:48.642Z,5.50
2022-10-03T16:24:29.673Z,6.03
2022-10-03T16:27:08.043Z,4.63
2022-10-03T16:29:39.935Z,5.10
2022-10-03T16:32:11.123Z,5.00
2022-10-03T16:34:45.379Z,8.73
2022-10-03T16:37:23.176Z,7.27
2022-10-03T16:40:00.439Z,7.27
2022-10-03T16:42:40.488Z,6.23
2022-10-03T16:45:23.378Z,6.40
2022-10-03T16:48:13.189Z,4.97
2022-10-03T16:50:49.967Z,6.83
2022-10-03T16:53:19.066Z,4.40
2022-10-03T16:55:55.405Z,7.67
2022-10-03T16:58:31.273Z,3.90
2022-10-03T17:03:59.854Z,5.37
2022-10-03T17:06:33.339Z,6.63
2022-10-03T17:09:08.451Z,5.53
2022-10-03T17:11:39.804Z,5.47
2022-10-03T17:14:10.144Z,5.93
2022-10-03T17:16:47.741Z,4.30
2022-10-03T17:19:27.955Z,6.93
2022-10-03T17:22:03.681Z,4.87
2022-10-03T17:24:46.460Z,7.20
2022-10-03T17:27:27.763Z,9.67
2022-10-03T17:30:03.556Z,6.80
2022-10-03T17:32:38.839Z,5.33
2022-10-03T17:35:19.018Z,7.07
2022-10-03T17:38:49.426Z,8.30
2022-10-03T17:41:19.424Z,4.20
2022-10-03T17:44:00.524Z,8.87
2022-10-03T17:46:40.753Z,15.53
2022-10-03T17:49:21.866Z,15.77
2022-10-03T17:51:54.260Z,14.47
2022-10-03T17:54:29.743Z,15.67
2022-10-03T17:57:06.068Z,14.17
2022-10-03T17:59:45.255Z,16.60
2022-10-03T18:02:22.144Z,10.73
2022-10-03T18:05:01.903Z,10.30
2022-10-03T18:07:31.185Z,8.77
2022-10-03T18:10:01.316Z,13.27
2022-10-03T18:12:36.130Z,6.03
2022-10-03T18:15:46.913Z,7.90
2022-10-03T18:18:58.932Z,5.83
2022-10-03T18:21:41.234Z,8.03
2022-10-03T18:24:44.191Z,7.17
2022-10-03T18:28:13.227Z,8.93
2022-10-03T18:30:50.927Z,6.43
2022-10-03T18:33:25.082Z,8.50
2022-10-03T18:35:54.230Z,9.57
2022-10-03T18:38:24.601Z,8.33
2022-10-03T18:40:57.738Z,7.30
2022-10-03T18:43:37.461Z,8.57
2022-10-03T18:46:16.388Z,9.73
2022-10-03T18:49:35.102Z,8.87
2022-10-03T18:52:11.479Z,26.00
2022-10-03T18:54:57.212Z,18.33
2022-10-03T18:57:35.370Z,14.53
2022-10-03T19:00:18.074Z,7.90
2022-10-03T19:02:53.327Z,7.53
2022-10-03T19:05:25.867Z,7.60
2022-10-03T19:08:10.154Z,7.57
2022-10-03T19:10:45.811Z,5.27
2022-10-03T19:13:27.071Z,5.47
2022-10-03T19:16:17.954Z,6.10
2022-10-03T19:18:53.861Z,6.73
2022-10-03T19:21:22.630Z,5.07
2022-10-03T19:23:58.415Z,9.00
2022-10-03T19:26:36.040Z,5.10
2022-10-03T19:29:09.327Z,4.87
2022-10-03T19:31:41.983Z,6.17
2022-10-03T19:34:22.991Z,5.57
2022-10-03T19:36:53.328Z,5.17
2022-10-03T19:39:23.229Z,5.13
2022-10-03T19:41:56.862Z,8.60
2022-10-03T19:44:27.596Z,8.27
2022-10-03T19:47:13.347Z,7.27
2022-10-03T19:50:04.726Z,10.23
2022-10-03T19:52:35.368Z,12.30
2022-10-03T19:55:13.735Z,7.67
2022-10-03T19:57:51.727Z,7.07
2022-10-03T20:00:28.902Z,2.97
2022-10-03T20:03:12.979Z,4.50
2022-10-03T20:05:52.353Z,5.10
2022-10-03T20:08:30.381Z,3.13
2022-10-03T20:11:29.977Z,5.80
2022-10-03T20:13:58.794Z,5.13
2022-10-03T20:16:33.468Z,4.43
2022-10-03T20:19:10.580Z,5.77
2022-10-03T20:21:39.118Z,4.13
2022-10-03T20:24:14.200Z,7.00
2022-10-03T20:26:50.572Z,3.83
2022-10-03T20:29:27.113Z,5.27
2022-10-03T20:32:01.602Z,5.50
2022-10-03T20:34:34.433Z,4.83
2022-10-03T20:37:26.334Z,5.37
2022-10-03T20:40:05.990Z,8.87
2022-10-03T20:42:37.478Z,10.77
2022-10-03T20:45:14.995Z,8.83
2022-10-03T20:47:56.052Z,9.73
2022-10-03T20:50:30.586Z,8.83
2022-10-03T20:53:01.826Z,9.23
2022-10-03T20:55:34.205Z,10.13
2022-10-03T20:58:17.134Z,8.43
2022-10-03T21:00:50.444Z,9.53
2022-10-03T21:03:30.440Z,7.27
2022-10-03T21:06:01.095Z,7.57
2022-10-03T21:08:36.249Z,6.37
2022-10-03T21:11:16.080Z,6.57
2022-10-03T21:13:49.739Z,7.97
2022-10-03T21:16:22.200Z,9.63
2022-10-03T21:18:53.118Z,7.17
2022-10-03T21:21:27.953Z,10.00
2022-10-03T21:24:03.973Z,7.17
2022-10-03T21:26:38.470Z,6.70
2022-10-03T21:29:19.466Z,8.03
2022-10-03T21:31:55.698Z,9.03
2022-10-03T21:34:32.119Z,7.10
2022-10-03T21:37:13.924Z,9.50
2022-10-03T21:40:00.745Z,7.00
2022-10-03T21:42:35.928Z,8.23
2022-10-03T21:45:22.168Z,7.87
2022-10-03T21:47:57.103Z,7.07
2022-10-03T21:50:30.835Z,7.97
2022-10-03T21:53:17.952Z,10.17
2022-10-03T21:56:19.447Z,9.57
2022-10-03T21:59:15.849Z,8.47
2022-10-03T22:01:54.410Z,9.97
2022-10-03T22:04:30.032Z,10.00
2022-10-03T22:07:06.713Z,9.17
2022-10-03T22:09:36.389Z,7.43
2022-10-03T22:12:08.112Z,7.97
2022-10-03T22:14:45.003Z,9.57
2022-10-03T22:17:24.341Z,6.13
2022-10-03T22:19:58.348Z,10.67
2022-10-03T22:22:47.245Z,7.77
2022-10-03T22:25:32.020Z,7.47
2022-10-03T22:28:10.175Z,8.00
2022-10-03T22:30:50.246Z,8.20
2022-10-03T22:33:32.592Z,6.63
2022-10-03T22:36:03.979Z,6.43
2022-10-03T22:38:36.440Z,9.27
2022-10-03T22:41:13.311Z,5.87
2022-10-03T22:43:43.330Z,5.73
2022-10-03T22:46:18.311Z,8.57
2022-10-03T22:48:51.291Z,5.03
2022-10-03T22:51:22.456Z,7.57
2022-10-03T22:53:56.998Z,5.13
2022-10-03T22:56:45.336Z,8.63
2022-10-03T22:59:20.242Z,10.60
2022-10-03T23:01:52.408Z,9.17
2022-10-03T23:04:31.662Z,5.17
2022-10-03T23:07:45.915Z,7.20
2022-10-03T23:10:34.018Z,8.53
2022-10-03T23:13:11.057Z,7.20
2022-10-03T23:15:43.255Z,6.63
2022-10-03T23:18:44.398Z,8.73
2022-10-03T23:21:13.674Z,6.87
2022-10-03T23:24:01.905Z,7.17
2022-10-03T23:27:21.374Z,9.33
2022-10-03T23:30:50.861Z,6.97
2022-10-03T23:33:55.626Z,6.33
2022-10-03T23:36:25.530Z,11.77
2022-10-03T23:38:59.642Z,8.57
2022-10-03T23:41:45.650Z,8.20
2022-10-03T23:44:49.414Z,6.67
2022-10-03T23:47:27.470Z,7.53
2022-10-03T23:49:57.011Z,13.03
2022-10-03T23:52:31.627Z,9.03
2022-10-03T23:55:06.699Z,10.23
2022-10-03T23:57:40.981Z,8.77
